Time;durP1;ratioP1;P1;durP2;ratioP2;P2;SDS_P1;SDS_P2;PMS_P1;PMS_P2;Temp;Humidity;BMP_temperature;BMP_pressure;BME280_temperature;BME280_humidity;BME280_pressure;Samples;Min_cycle;Max_cycle;Signal;HPM_P1;HPM_P2
2022/05/29 00:00:37;;;;;;;0.00;0.00;;;10.60;85.90;;;;;;5031160;28;20087;-69
2022/05/29 00:03:02;;;;;;;0.10;0.10;;;10.60;85.40;;;;;;5030584;28;20125;-68
2022/05/29 00:05:28;;;;;;;0.00;0.00;;;10.70;84.40;;;;;;5031148;28;20414;-69
2022/05/29 00:07:54;;;;;;;0.00;0.00;;;10.60;83.00;;;;;;5030127;28;20052;-68
2022/05/29 00:10:19;;;;;;;0.00;0.00;;;10.70;82.70;;;;;;5030985;28;20052;-69
2022/05/29 00:12:45;;;;;;;0.10;0.10;;;10.60;81.90;;;;;;5030273;28;20072;-69
2022/05/29 00:15:12;;;;;;;0.00;0.00;;;10.60;81.20;;;;;;5030465;28;20048;-69
2022/05/29 00:17:38;;;;;;;0.00;0.00;;;10.70;81.10;;;;;;5023400;28;20042;-69
2022/05/29 00:20:04;;;;;;;0.00;0.00;;;10.70;81.20;;;;;;5030645;28;20052;-68
2022/05/29 00:22:32;;;;;;;0.00;0.00;;;10.70;81.10;;;;;;5030545;28;20068;-69
2022/05/29 00:24:58;;;;;;;0.00;0.00;;;10.70;80.60;;;;;;5030667;28;20506;-68
2022/05/29 00:27:23;;;;;;;0.00;0.00;;;10.70;80.50;;;;;;5026848;28;20131;-69
2022/05/29 00:29:49;;;;;;;0.00;0.00;;;10.70;80.20;;;;;;5021352;28;20052;-68
2022/05/29 00:32:15;;;;;;;0.00;0.00;;;10.60;79.90;;;;;;5027377;28;20789;-70
2022/05/29 00:34:41;;;;;;;0.00;0.00;;;10.60;79.40;;;;;;5010081;28;20049;-69
2022/05/29 00:37:08;;;;;;;0.10;0.10;;;10.60;79.50;;;;;;5019062;28;20049;-68
2022/05/29 00:39:34;;;;;;;0.00;0.00;;;10.60;79.50;;;;;;5030389;28;20041;-69
2022/05/29 00:42:03;;;;;;;0.55;0.55;;;10.60;79.30;;;;;;5029921;28;20071;-70
2022/05/29 00:44:30;;;;;;;0.00;0.00;;;10.60;79.50;;;;;;5021638;28;20095;-70
2022/05/29 00:47:09;;;;;;;0.00;0.00;;;10.50;79.10;;;;;;5029976;28;20579;-69
2022/05/29 00:49:36;;;;;;;0.00;0.00;;;10.40;79.20;;;;;;5016856;28;20049;-70
2022/05/29 00:52:05;;;;;;;0.05;0.05;;;10.40;79.20;;;;;;5029948;28;20619;-70
2022/05/29 00:54:42;;;;;;;0.00;0.00;;;10.20;79.40;;;;;;5030174;28;20041;-70
2022/05/29 00:57:23;;;;;;;0.00;0.00;;;10.20;79.90;;;;;;5029108;28;20464;-70
2022/05/29 00:59:49;;;;;;;0.00;0.00;;;10.20;80.20;;;;;;5030465;28;20159;-71
2022/05/29 01:02:15;;;;;;;0.00;0.00;;;10.20;80.30;;;;;;5029407;28;20049;-70
2022/05/29 01:04:42;;;;;;;0.00;0.00;;;10.20;80.80;;;;;;5025756;28;20042;-70
2022/05/29 01:07:12;;;;;;;9.88;0.47;;;10.30;81.00;;;;;;5024714;28;20472;-70
2022/05/29 01:09:40;;;;;;;0.00;0.00;;;10.30;81.20;;;;;;5029948;28;20064;-71
2022/05/29 01:12:11;;;;;;;0.20;0.20;;;10.30;81.60;;;;;;5023446;28;20061;-70
2022/05/29 01:14:46;;;;;;;0.00;0.00;;;10.40;81.80;;;;;;5028568;28;20045;-70
2022/05/29 01:17:33;;;;;;;0.00;0.00;;;10.40;82.20;;;;;;5019752;28;20049;-70
2022/05/29 01:20:17;;;;;;;0.00;0.00;;;10.30;82.60;;;;;;5028369;28;20481;-70
2022/05/29 01:23:13;;;;;;;0.80;0.80;;;10.40;82.80;;;;;;5020893;28;20045;-71
2022/05/29 01:26:07;;;;;;;0.00;0.00;;;10.40;82.70;;;;;;5022139;28;20045;-70
2022/05/29 01:28:57;;;;;;;0.00;0.00;;;10.50;82.80;;;;;;5031070;28;20063;-70
2022/05/29 01:31:58;;;;;;;0.00;0.00;;;10.50;82.90;;;;;;5023992;28;20053;-70
2022/05/29 01:34:34;;;;;;;0.15;0.15;;;10.50;83.10;;;;;;5031536;28;20049;-70
2022/05/29 01:37:22;;;;;;;0.00;0.00;;;10.60;83.10;;;;;;5022165;28;20511;-71
2022/05/29 01:40:14;;;;;;;0.00;0.00;;;10.60;83.00;;;;;;5032928;28;20142;-71
2022/05/29 01:42:45;;;;;;;0.00;0.00;;;10.60;83.10;;;;;;5034191;28;20067;-71
2022/05/29 01:45:25;;;;;;;0.10;0.10;;;10.70;83.00;;;;;;5033819;28;20041;-71
2022/05/29 01:47:55;;;;;;;0.00;0.00;;;10.60;83.00;;;;;;5026267;28;20056;-70
2022/05/29 01:50:43;;;;;;;0.00;0.00;;;10.60;82.90;;;;;;5034310;28;20037;-70
2022/05/29 01:53:16;;;;;;;0.00;0.00;;;10.70;82.80;;;;;;5032799;28;20045;-70
2022/05/29 01:55:48;;;;;;;0.65;0.45;;;10.70;82.80;;;;;;5032178;28;20167;-70
2022/05/29 01:58:20;;;;;;;0.60;0.60;;;10.70;82.20;;;;;;5031928;28;20041;-70
2022/05/29 02:00:48;;;;;;;0.00;0.00;;;10.60;81.80;;;;;;5032150;28;20514;-70
2022/05/29 02:03:20;;;;;;;0.00;0.00;;;10.70;81.50;;;;;;5037065;28;20056;-70
2022/05/29 02:05:57;;;;;;;0.10;0.10;;;10.70;81.40;;;;;;5020051;28;20576;-71
2022/05/29 02:08:45;;;;;;;0.47;0.47;;;10.60;81.00;;;;;;5026694;28;20131;-71
2022/05/29 02:11:15;;;;;;;0.00;0.00;;;10.70;80.80;;;;;;5033667;28;20418;-71
2022/05/29 02:14:01;;;;;;;0.00;0.00;;;10.60;80.50;;;;;;5033468;28;20418;-71
2022/05/29 02:16:47;;;;;;;0.00;0.00;;;10.60;80.50;;;;;;5028934;28;20120;-71
2022/05/29 02:19:32;;;;;;;0.03;0.03;;;10.60;80.40;;;;;;5031944;28;20052;-71
2022/05/29 02:22:08;;;;;;;0.00;0.00;;;10.60;80.40;;;;;;5032777;28;20045;-71
2022/05/29 02:24:41;;;;;;;0.10;0.10;;;10.60;80.60;;;;;;5032644;28;20041;-71
2022/05/29 02:27:31;;;;;;;0.00;0.00;;;10.60;80.90;;;;;;5029012;28;20041;-71
2022/05/29 02:29:58;;;;;;;0.00;0.00;;;10.50;81.40;;;;;;5032141;28;20041;-71
2022/05/29 02:32:50;;;;;;;0.00;0.00;;;10.40;81.60;;;;;;5032576;28;20495;-71
2022/05/29 02:35:25;;;;;;;0.00;0.00;;;10.40;81.60;;;;;;5032728;28;20049;-71
2022/05/29 02:37:59;;;;;;;0.20;0.20;;;10.50;81.90;;;;;;5020554;28;20445;-71
2022/05/29 02:40:47;;;;;;;0.00;0.00;;;10.50;81.90;;;;;;5032428;28;20099;-71
2022/05/29 02:43:28;;;;;;;0.00;0.00;;;10.40;82.10;;;;;;5032570;28;20048;-71
2022/05/29 02:46:21;;;;;;;0.00;0.00;;;10.40;82.30;;;;;;5030526;28;20081;-71
2022/05/29 02:49:00;;;;;;;0.10;0.10;;;10.40;82.40;;;;;;5031823;28;20079;-71
2022/05/29 02:51:59;;;;;;;0.05;0.05;;;10.40;82.50;;;;;;5031899;28;20056;-71
2022/05/29 02:54:28;;;;;;;0.25;0.25;;;10.40;82.50;;;;;;5021965;28;20871;-71
2022/05/29 02:56:56;;;;;;;0.00;0.00;;;10.50;82.70;;;;;;5026414;28;20514;-72
2022/05/29 02:59:40;;;;;;;0.00;0.00;;;10.50;82.60;;;;;;5032510;28;20052;-70
2022/05/29 03:02:30;;;;;;;0.00;0.00;;;10.60;82.60;;;;;;5030984;28;20045;-70
2022/05/29 03:05:23;;;;;;;1.55;1.00;;;10.60;82.60;;;;;;5032173;28;20041;-71
2022/05/29 03:08:07;;;;;;;0.00;0.00;;;10.60;82.80;;;;;;5030539;28;20034;-71
2022/05/29 03:10:50;;;;;;;0.00;0.00;;;10.60;83.30;;;;;;5029841;28;20037;-70
2022/05/29 03:13:31;;;;;;;2.10;1.25;;;10.60;82.90;;;;;;5031888;28;20132;-71
2022/05/29 03:16:31;;;;;;;0.00;0.00;;;10.60;83.40;;;;;;5026722;28;20049;-71
2022/05/29 03:19:12;;;;;;;0.00;0.00;;;10.60;83.50;;;;;;5031659;28;20042;-71
2022/05/29 03:21:45;;;;;;;0.00;0.00;;;10.60;83.50;;;;;;5032384;28;20045;-71
2022/05/29 03:24:25;;;;;;;0.00;0.00;;;10.70;83.30;;;;;;5032349;28;20052;-71
2022/05/29 03:27:09;;;;;;;0.00;0.00;;;10.70;83.10;;;;;;5028343;28;20525;-71
2022/05/29 03:29:37;;;;;;;0.00;0.00;;;10.80;83.40;;;;;;5027238;28;20045;-71
2022/05/29 03:32:05;;;;;;;0.00;0.00;;;10.80;83.60;;;;;;5028530;28;20056;-71
2022/05/29 03:34:30;;;;;;;0.00;0.00;;;10.70;83.60;;;;;;5031342;28;20129;-70
2022/05/29 03:36:56;;;;;;;0.00;0.00;;;10.70;83.70;;;;;;5028887;28;20117;-70
2022/05/29 03:39:22;;;;;;;0.00;0.00;;;10.70;84.00;;;;;;5026164;28;20183;-71
2022/05/29 03:41:50;;;;;;;0.00;0.00;;;10.60;84.60;;;;;;5021448;28;20053;-71
2022/05/29 03:44:19;;;;;;;0.00;0.00;;;10.60;84.90;;;;;;5031083;28;20080;-71
2022/05/29 03:46:45;;;;;;;0.35;0.35;;;10.60;84.80;;;;;;5028364;28;20095;-70
2022/05/29 03:49:12;;;;;;;0.00;0.00;;;10.50;84.80;;;;;;5031172;28;20483;-70
2022/05/29 03:51:38;;;;;;;0.00;0.00;;;10.60;84.60;;;;;;5030220;28;20045;-70
2022/05/29 03:54:05;;;;;;;0.00;0.00;;;10.50;84.10;;;;;;5029355;28;20482;-70
2022/05/29 03:56:31;;;;;;;0.00;0.00;;;10.50;84.00;;;;;;5020870;28;20041;-70
2022/05/29 03:58:57;;;;;;;0.00;0.00;;;10.40;83.50;;;;;;5029488;28;20063;-70
2022/05/29 04:01:23;;;;;;;0.00;0.00;;;10.40;82.40;;;;;;5029932;28;20136;-71
2022/05/29 04:03:49;;;;;;;0.00;0.00;;;10.30;82.90;;;;;;5029911;28;20117;-70
2022/05/29 04:06:15;;;;;;;0.00;0.00;;;10.30;83.20;;;;;;5029799;28;20073;-71
2022/05/29 04:14:09;;;;;;;0.00;0.00;;;10.10;84.90;;;;;;5028728;28;20058;-70
2022/05/29 04:16:35;;;;;;;0.00;0.00;;;10.10;85.10;;;;;;5029852;28;20045;-70
2022/05/29 04:19:01;;;;;;;0.00;0.00;;;10.10;85.30;;;;;;5030400;28;20033;-70
2022/05/29 04:21:27;;;;;;;0.00;0.00;;;10.20;85.10;;;;;;5028401;28;20049;-71
2022/05/29 04:23:52;;;;;;;0.00;0.00;;;10.10;85.30;;;;;;5028437;28;20061;-71
2022/05/29 04:26:18;;;;;;;0.00;0.00;;;10.20;85.50;;;;;;5028780;28;20046;-70
2022/05/29 04:28:44;;;;;;;0.00;0.00;;;10.20;85.50;;;;;;5028971;28;20125;-72
2022/05/29 04:31:11;;;;;;;0.00;0.00;;;10.20;85.60;;;;;;5029169;28;20048;-71
2022/05/29 04:33:37;;;;;;;0.00;0.00;;;10.20;85.60;;;;;;5029558;28;20045;-71
2022/05/29 04:36:03;;;;;;;0.00;0.00;;;10.20;85.90;;;;;;5028457;28;20098;-70
2022/05/29 04:38:30;;;;;;;0.00;0.00;;;10.20;85.80;;;;;;5028321;28;20167;-70
2022/05/29 04:40:57;;;;;;;0.00;0.00;;;10.30;85.70;;;;;;5029051;28;20045;-70
2022/05/29 04:43:23;;;;;;;0.00;0.00;;;10.30;85.70;;;;;;5028995;28;20040;-69
2022/05/29 04:45:54;;;;;;;0.05;0.05;;;10.40;85.80;;;;;;5028986;28;20064;-69
2022/05/29 04:48:20;;;;;;;0.00;0.00;;;10.40;85.80;;;;;;5029146;28;20049;-69
2022/05/29 04:50:46;;;;;;;0.00;0.00;;;10.50;85.50;;;;;;5029349;28;20819;-69
2022/05/29 04:53:12;;;;;;;0.00;0.00;;;10.50;85.30;;;;;;5028732;28;20049;-70
2022/05/29 04:55:41;;;;;;;0.00;0.00;;;10.50;85.20;;;;;;5029012;28;20044;-69
2022/05/29 04:58:08;;;;;;;0.00;0.00;;;10.50;85.30;;;;;;5029217;28;20041;-71
2022/05/29 05:00:34;;;;;;;0.00;0.00;;;10.50;85.50;;;;;;5029493;28;20077;-70
2022/05/29 05:03:01;;;;;;;0.00;0.00;;;10.50;85.60;;;;;;5025137;28;20038;-68
2022/05/29 05:05:27;;;;;;;0.00;0.00;;;10.60;85.80;;;;;;5032904;28;20494;-69
2022/05/29 05:07:53;;;;;;;0.00;0.00;;;10.60;85.80;;;;;;5031019;28;20034;-70
2022/05/29 05:10:19;;;;;;;0.17;0.17;;;10.60;85.70;;;;;;5033317;28;20061;-70
2022/05/29 05:12:45;;;;;;;0.10;0.10;;;10.60;85.40;;;;;;5033096;28;20052;-70
2022/05/29 05:15:13;;;;;;;0.00;0.00;;;10.60;85.50;;;;;;5029267;28;20045;-69
2022/05/29 05:17:38;;;;;;;0.00;0.00;;;10.70;85.40;;;;;;5031717;28;20048;-69
2022/05/29 05:20:06;;;;;;;0.10;0.10;;;10.70;85.30;;;;;;5032721;28;20045;-69
2022/05/29 05:22:32;;;;;;;0.00;0.00;;;10.70;85.00;;;;;;5033261;28;20041;-70
2022/05/29 05:24:58;;;;;;;0.00;0.00;;;10.70;84.70;;;;;;5032821;28;20053;-69
2022/05/29 05:27:24;;;;;;;0.00;0.00;;;10.70;84.50;;;;;;5034568;28;20057;-70
2022/05/29 05:29:50;;;;;;;0.00;0.00;;;10.70;83.90;;;;;;5031263;28;20119;-70
2022/05/29 05:32:16;;;;;;;0.00;0.00;;;10.80;83.30;;;;;;5032373;28;20088;-70
2022/05/29 05:34:42;;;;;;;0.00;0.00;;;10.80;82.90;;;;;;5022608;28;20034;-70
2022/05/29 05:37:10;;;;;;;0.00;0.00;;;10.80;82.80;;;;;;5012880;28;20125;-70
2022/05/29 05:39:35;;;;;;;0.00;0.00;;;10.80;82.60;;;;;;5033556;28;20042;-70
2022/05/29 05:42:01;;;;;;;0.00;0.00;;;10.80;81.60;;;;;;5033350;28;20041;-70
2022/05/29 05:44:27;;;;;;;0.00;0.00;;;10.80;81.90;;;;;;5026537;28;20049;-70
2022/05/29 05:46:53;;;;;;;0.10;0.10;;;10.80;81.90;;;;;;5014020;28;20038;-70
2022/05/29 05:49:21;;;;;;;0.00;0.00;;;10.90;81.90;;;;;;5022928;28;20553;-70
2022/05/29 05:51:47;;;;;;;0.00;0.00;;;10.90;81.80;;;;;;5024820;28;20071;-70
2022/05/29 05:54:13;;;;;;;0.00;0.00;;;10.90;81.70;;;;;;5033037;28;20048;-70
2022/05/29 05:56:47;;;;;;;0.00;0.00;;;10.90;81.40;;;;;;5034523;28;20112;-69
2022/05/29 05:59:13;;;;;;;0.00;0.00;;;10.90;81.10;;;;;;5019771;28;20041;-70
2022/05/29 06:01:39;;;;;;;0.00;0.00;;;10.90;81.30;;;;;;5033192;28;20528;-70
2022/05/29 06:04:05;;;;;;;0.50;0.50;;;11.00;81.40;;;;;;5032611;28;20048;-70
2022/05/29 06:06:31;;;;;;;0.00;0.00;;;11.10;81.40;;;;;;5033289;28;20053;-70
2022/05/29 06:08:57;;;;;;;0.00;0.00;;;11.10;81.30;;;;;;5021882;28;20605;-70
2022/05/29 06:11:24;;;;;;;0.00;0.00;;;11.10;81.10;;;;;;5021230;28;20184;-70
2022/05/29 06:13:50;;;;;;;0.00;0.00;;;11.20;81.00;;;;;;5016588;28;20076;-70
2022/05/29 06:16:15;;;;;;;0.00;0.00;;;11.20;80.80;;;;;;5020490;28;20077;-70
2022/05/29 06:18:41;;;;;;;0.00;0.00;;;11.20;80.60;;;;;;5030055;28;20087;-70
2022/05/29 06:21:07;;;;;;;0.00;0.00;;;11.30;80.40;;;;;;5014805;28;20042;-70
2022/05/29 06:23:34;;;;;;;0.32;0.32;;;11.30;79.80;;;;;;5021110;28;20052;-71
2022/05/29 06:26:08;;;;;;;0.00;0.00;;;11.40;79.50;;;;;;5028049;28;20494;-71
2022/05/29 06:28:34;;;;;;;0.00;0.00;;;11.50;79.00;;;;;;5032770;28;20041;-71
2022/05/29 06:31:03;;;;;;;0.30;0.30;;;11.50;78.90;;;;;;5030758;28;20566;-71
2022/05/29 06:33:29;;;;;;;0.00;0.00;;;11.50;77.60;;;;;;5025600;28;20495;-70
2022/05/29 06:36:09;;;;;;;0.00;0.00;;;11.60;78.10;;;;;;5014110;28;20125;-70
2022/05/29 06:38:35;;;;;;;0.00;0.00;;;11.60;77.50;;;;;;5027302;28;20049;-71
2022/05/29 06:41:04;;;;;;;0.05;0.05;;;11.60;76.10;;;;;;5028730;28;20034;-70
2022/05/29 06:43:30;;;;;;;0.00;0.00;;;11.60;76.60;;;;;;5028874;28;20037;-70
2022/05/29 06:45:57;;;;;;;0.00;0.00;;;11.50;76.00;;;;;;5032430;28;20052;-70
2022/05/29 06:48:23;;;;;;;0.00;0.00;;;11.40;75.90;;;;;;5017031;28;20050;-70
2022/05/29 06:50:48;;;;;;;0.43;0.43;;;11.30;76.30;;;;;;5018874;28;20045;-69
2022/05/29 06:53:14;;;;;;;0.28;0.28;;;11.20;76.60;;;;;;5025001;28;20053;-70
2022/05/29 06:55:40;;;;;;;0.00;0.00;;;11.20;76.50;;;;;;5031754;28;20128;-70
2022/05/29 06:58:06;;;;;;;0.00;0.00;;;11.20;75.60;;;;;;5032288;28;20521;-70
2022/05/29 07:08:45;;;;;;;0.00;0.00;;;11.30;74.70;;;;;;5027421;28;20046;-69
2022/05/29 07:11:23;;;;;;;0.00;0.00;;;11.30;75.10;;;;;;5029330;28;20045;-69
2022/05/29 07:13:49;;;;;;;0.00;0.00;;;11.40;74.90;;;;;;5030473;28;20037;-69
2022/05/29 07:16:15;;;;;;;0.00;0.00;;;11.40;75.40;;;;;;5029524;28;20050;-69
2022/05/29 07:18:41;;;;;;;0.00;0.00;;;11.40;75.10;;;;;;5031116;28;20521;-69
2022/05/29 07:21:07;;;;;;;0.08;0.08;;;11.40;75.60;;;;;;5023559;28;20041;-69
2022/05/29 07:23:34;;;;;;;0.10;0.10;;;11.50;75.80;;;;;;5041463;28;20049;-69
2022/05/29 07:26:00;;;;;;;10.05;0.88;;;11.50;75.70;;;;;;5030264;28;20107;-68
2022/05/29 07:28:25;;;;;;;0.00;0.00;;;11.60;75.70;;;;;;5026748;28;20037;-70
2022/05/29 07:30:52;;;;;;;0.00;0.00;;;11.60;75.70;;;;;;5026490;28;20049;-70
2022/05/29 07:33:18;;;;;;;0.00;0.00;;;11.60;75.20;;;;;;5025318;28;20053;-70
2022/05/29 07:35:44;;;;;;;0.00;0.00;;;11.60;74.50;;;;;;5026451;28;20037;-70
2022/05/29 07:38:10;;;;;;;0.10;0.10;;;11.60;74.10;;;;;;5020126;28;20045;-71
2022/05/29 07:40:37;;;;;;;0.00;0.00;;;11.60;74.90;;;;;;5030058;28;20124;-69
2022/05/29 07:43:24;;;;;;;0.00;0.00;;;11.70;74.80;;;;;;5013445;28;20064;-68
2022/05/29 07:45:52;;;;;;;0.00;0.00;;;11.70;75.00;;;;;;5023034;28;20041;-69
2022/05/29 07:48:24;;;;;;;0.00;0.00;;;11.80;74.60;;;;;;5027071;28;20056;-68
2022/05/29 07:50:54;;;;;;;0.10;0.10;;;11.90;74.50;;;;;;5023438;28;20778;-69
2022/05/29 07:53:20;;;;;;;0.00;0.00;;;11.90;74.20;;;;;;5025505;28;20099;-68
2022/05/29 07:55:45;;;;;;;0.00;0.00;;;11.90;74.40;;;;;;5031152;28;20073;-69
2022/05/29 07:58:13;;;;;;;0.00;0.00;;;11.90;74.10;;;;;;5024767;28;20411;-68
2022/05/29 08:00:40;;;;;;;0.47;0.47;;;11.90;74.20;;;;;;5025099;28;20042;-69
2022/05/29 08:03:06;;;;;;;0.00;0.00;;;12.00;73.70;;;;;;5016742;28;20033;-69
2022/05/29 08:05:36;;;;;;;0.00;0.00;;;11.90;72.70;;;;;;5026949;28;20044;-69
2022/05/29 08:08:05;;;;;;;0.00;0.00;;;11.90;72.90;;;;;;5030491;28;20457;-69
2022/05/29 08:10:34;;;;;;;0.10;0.10;;;11.90;72.80;;;;;;5032676;28;20060;-70
2022/05/29 08:12:59;;;;;;;0.00;0.00;;;12.00;73.30;;;;;;5031084;28;20097;-70
2022/05/29 08:15:26;;;;;;;0.43;0.35;;;12.00;72.40;;;;;;5030882;28;20073;-69
2022/05/29 08:17:52;;;;;;;0.00;0.00;;;12.10;71.70;;;;;;5030344;28;20825;-70
2022/05/29 08:20:18;;;;;;;0.00;0.00;;;12.20;72.10;;;;;;5025099;28;20059;-69
2022/05/29 08:22:44;;;;;;;0.10;0.10;;;12.20;71.40;;;;;;5029415;28;20128;-70
2022/05/29 08:30:54;;;;;;;0.00;0.00;;;12.10;69.40;;;;;;5020285;28;20046;-70
2022/05/29 08:33:23;;;;;;;0.00;0.00;;;12.10;71.00;;;;;;5025876;28;20049;-69
2022/05/29 08:36:12;;;;;;;0.00;0.00;;;12.20;71.50;;;;;;5030639;28;20037;-69
2022/05/29 08:38:43;;;;;;;0.00;0.00;;;12.20;70.60;;;;;;5025864;28;20125;-69
2022/05/29 08:41:23;;;;;;;0.00;0.00;;;12.30;69.60;;;;;;5028602;28;20057;-69
2022/05/29 08:44:12;;;;;;;0.00;0.00;;;12.20;68.80;;;;;;5034317;28;20392;-69
2022/05/29 08:46:44;;;;;;;0.00;0.00;;;12.20;70.10;;;;;;5035069;28;20044;-69
2022/05/29 08:49:13;;;;;;;;;;;12.20;71.40;;;;;;5030841;28;20665;-69
2022/05/29 08:52:00;;;;;;;0.00;0.00;;;12.10;72.60;;;;;;5025458;28;19925;-69
2022/05/29 08:55:00;;;;;;;0.00;0.00;;;12.30;71.30;;;;;;5030394;28;20501;-69
2022/05/29 08:57:46;;;;;;;0.08;0.08;;;12.20;71.80;;;;;;5026640;28;20510;-68
2022/05/29 09:00:37;;;;;;;0.00;0.00;;;12.30;71.40;;;;;;5029422;28;20061;-69
2022/05/29 09:03:28;;;;;;;0.00;0.00;;;12.10;71.90;;;;;;5029238;28;20704;-69
2022/05/29 09:06:15;;;;;;;0.00;0.00;;;12.10;72.40;;;;;;5030532;28;20272;-68
2022/05/29 09:08:47;;;;;;;0.00;0.00;;;12.00;73.10;;;;;;5027741;28;20103;-69
2022/05/29 09:11:35;;;;;;;0.00;0.00;;;11.90;73.10;;;;;;5027215;28;20486;-68
2022/05/29 09:14:23;;;;;;;0.00;0.00;;;11.80;73.90;;;;;;5028364;28;20078;-69
2022/05/29 09:17:01;;;;;;;0.10;0.10;;;11.80;74.10;;;;;;5017283;28;20050;-68
2022/05/29 09:19:53;;;;;;;0.05;0.05;;;11.70;74.50;;;;;;5015984;28;20049;-69
2022/05/29 09:22:24;;;;;;;0.00;0.00;;;11.70;74.10;;;;;;5024329;28;20054;-68
2022/05/29 09:24:57;;;;;;;0.00;0.00;;;11.90;74.10;;;;;;5020787;28;20480;-68
2022/05/29 09:27:23;;;;;;;0.00;0.00;;;11.90;73.80;;;;;;5014548;28;20045;-68
2022/05/29 09:29:52;;;;;;;0.00;0.00;;;12.10;73.60;;;;;;5030144;28;20038;-67
2022/05/29 09:32:22;;;;;;;0.00;0.00;;;12.10;72.90;;;;;;5023672;28;20053;-68
2022/05/29 09:35:17;;;;;;;0.00;0.00;;;12.20;73.50;;;;;;5014425;28;20053;-70
2022/05/29 09:37:45;;;;;;;0.20;0.20;;;12.20;72.00;;;;;;5025250;28;20503;-74
2022/05/29 09:40:21;;;;;;;0.90;0.90;;;12.20;71.60;;;;;;5010701;28;20056;-71
2022/05/29 09:42:48;;;;;;;0.00;0.00;;;12.10;71.20;;;;;;5018431;28;20057;-71
2022/05/29 09:45:32;;;;;;;0.00;0.00;;;11.90;72.30;;;;;;5010843;28;20094;-72
2022/05/29 09:50:59;;;;;;;0.00;0.00;;;11.90;71.90;;;;;;5031704;28;20060;-70
2022/05/29 09:53:32;;;;;;;0.22;0.22;;;11.90;71.50;;;;;;5029506;28;20046;-70
2022/05/29 09:56:04;;;;;;;0.75;0.65;;;11.90;69.90;;;;;;5024945;28;20049;-70
2022/05/29 09:58:43;;;;;;;0.00;0.00;;;12.00;69.60;;;;;;5034490;28;20045;-69
2022/05/29 10:01:10;;;;;;;0.00;0.00;;;12.10;69.90;;;;;;5034308;28;20045;-70
2022/05/29 10:03:39;;;;;;;0.00;0.00;;;12.20;70.20;;;;;;5022922;28;20403;-69
2022/05/29 10:06:28;;;;;;;0.00;0.00;;;12.20;70.40;;;;;;5033756;28;20147;-68
2022/05/29 10:09:04;;;;;;;0.00;0.00;;;12.20;69.10;;;;;;5033919;28;20053;-69
2022/05/29 10:11:32;;;;;;;0.00;0.00;;;12.20;70.10;;;;;;5032676;28;20049;-69
2022/05/29 10:14:02;;;;;;;0.00;0.00;;;12.10;70.60;;;;;;5029596;28;20746;-69
2022/05/29 10:16:36;;;;;;;0.00;0.00;;;12.20;71.60;;;;;;5018506;28;20045;-68
2022/05/29 10:19:03;;;;;;;0.00;0.00;;;12.10;73.70;;;;;;5031524;28;20701;-68
2022/05/29 10:21:32;;;;;;;0.00;0.00;;;11.90;73.90;;;;;;5032954;28;20099;-67
2022/05/29 10:24:20;;;;;;;0.00;0.00;;;11.80;73.70;;;;;;5031097;28;20045;-67
2022/05/29 10:26:53;;;;;;;0.00;0.00;;;11.70;74.00;;;;;;5027404;28;20046;-67
2022/05/29 10:29:31;;;;;;;0.00;0.00;;;11.70;73.60;;;;;;5032094;28;20061;-67
2022/05/29 10:31:59;;;;;;;0.10;0.10;;;11.80;73.60;;;;;;5028407;28;20041;-67
2022/05/29 10:34:33;;;;;;;0.00;0.00;;;11.90;73.30;;;;;;5027075;28;20525;-66
2022/05/29 10:36:59;;;;;;;0.00;0.00;;;12.00;73.30;;;;;;5026172;28;20391;-67
2022/05/29 10:39:29;;;;;;;0.00;0.00;;;12.10;71.80;;;;;;5029863;28;20048;-67
2022/05/29 10:41:57;;;;;;;0.00;0.00;;;12.10;71.80;;;;;;5027749;28;20175;-67
2022/05/29 10:44:44;;;;;;;0.00;0.00;;;12.20;70.30;;;;;;5028279;28;20064;-68
2022/05/29 10:47:36;;;;;;;0.08;0.08;;;12.20;70.30;;;;;;5026987;28;20049;-68
2022/05/29 10:50:14;;;;;;;0.00;0.00;;;12.30;69.30;;;;;;5026901;28;20048;-67
2022/05/29 10:53:08;;;;;;;0.00;0.00;;;12.50;69.90;;;;;;5027015;28;20041;-68
2022/05/29 10:55:43;;;;;;;0.00;0.00;;;12.60;69.40;;;;;;5025762;28;20045;-69
2022/05/29 10:58:27;;;;;;;0.00;0.00;;;12.70;69.60;;;;;;5030678;28;20073;-68
2022/05/29 11:01:04;;;;;;;0.00;0.00;;;12.80;69.30;;;;;;5030377;28;20156;-69
2022/05/29 11:03:42;;;;;;;0.00;0.00;;;12.70;68.50;;;;;;5031504;28;20041;-68
2022/05/29 11:06:41;;;;;;;0.00;0.00;;;12.70;68.80;;;;;;5031240;28;20077;-68
2022/05/29 11:09:41;;;;;;;0.00;0.00;;;12.70;69.30;;;;;;5030608;28;20050;-68
2022/05/29 11:12:45;;;;;;;0.00;0.00;;;12.70;69.80;;;;;;5026970;28;20502;-69
2022/05/29 11:15:21;;;;;;;0.00;0.00;;;12.60;68.90;;;;;;5029980;28;20453;-68
2022/05/29 11:17:56;;;;;;;0.00;0.00;;;12.40;69.80;;;;;;5029130;28;20045;-68
2022/05/29 11:20:56;;;;;;;0.00;0.00;;;12.30;70.70;;;;;;5028903;28;20565;-69
2022/05/29 11:23:55;;;;;;;0.00;0.00;;;12.10;72.90;;;;;;5030503;28;20080;-69
2022/05/29 11:26:42;;;;;;;0.00;0.00;;;12.00;73.30;;;;;;5014491;28;20060;-70
2022/05/29 11:29:21;;;;;;;0.00;0.00;;;11.90;74.00;;;;;;5019938;28;20061;-69
2022/05/29 11:32:04;;;;;;;0.00;0.00;;;11.90;73.50;;;;;;5030321;28;20119;-70
2022/05/29 11:34:58;;;;;;;0.00;0.00;;;11.90;72.10;;;;;;5030335;28;20060;-70
2022/05/29 11:37:54;;;;;;;0.00;0.00;;;12.00;71.90;;;;;;5029055;28;20042;-67
2022/05/29 11:40:25;;;;;;;0.00;0.00;;;12.10;70.20;;;;;;5027991;28;20388;-68
2022/05/29 11:42:53;;;;;;;0.00;0.00;;;12.20;71.20;;;;;;5030632;28;20099;-69
2022/05/29 11:51:34;;;;;;;0.40;0.40;;;12.60;69.90;;;;;;5029289;28;20057;-69
2022/05/29 11:54:32;;;;;;;0.00;0.00;;;12.90;69.00;;;;;;5030553;28;20057;-68
2022/05/29 11:57:19;;;;;;;0.00;0.00;;;13.00;68.40;;;;;;5022469;28;20053;-68
2022/05/29 12:00:07;;;;;;;0.00;0.00;;;13.10;67.60;;;;;;5031054;28;20057;-68
2022/05/29 12:02:49;;;;;;;0.00;0.00;;;13.10;66.90;;;;;;5030216;28;20042;-69
2022/05/29 12:05:26;;;;;;;0.30;0.30;;;13.00;66.60;;;;;;5030381;28;20068;-68
2022/05/29 12:08:14;;;;;;;0.00;0.00;;;13.00;65.20;;;;;;5027290;28;20049;-68
2022/05/29 12:10:57;;;;;;;0.00;0.00;;;12.90;65.00;;;;;;5030105;28;20057;-68
2022/05/29 12:13:28;;;;;;;0.00;0.00;;;13.00;66.40;;;;;;5030447;28;20049;-68
2022/05/29 12:16:02;;;;;;;0.00;0.00;;;12.90;67.30;;;;;;5031671;28;20045;-68
2022/05/29 12:18:41;;;;;;;1.38;1.00;;;12.80;68.40;;;;;;5031572;28;20383;-68
2022/05/29 12:21:08;;;;;;;0.00;0.00;;;12.50;70.30;;;;;;5030685;28;20052;-68
2022/05/29 12:23:41;;;;;;;0.00;0.00;;;12.30;70.80;;;;;;5029274;28;20513;-69
2022/05/29 12:26:16;;;;;;;0.00;0.00;;;12.20;70.80;;;;;;5030262;28;20050;-69
2022/05/29 12:28:52;;;;;;;0.00;0.00;;;12.30;71.20;;;;;;5030408;28;20564;-68
2022/05/29 12:31:31;;;;;;;0.00;0.00;;;12.30;70.00;;;;;;5031136;28;20050;-69
2022/05/29 12:33:57;;;;;;;0.00;0.00;;;12.40;69.80;;;;;;5030586;28;20053;-68
2022/05/29 12:36:29;;;;;;;0.00;0.00;;;12.50;68.50;;;;;;5030828;28;20045;-69
2022/05/29 12:39:03;;;;;;;0.00;0.00;;;12.40;67.70;;;;;;5026958;28;20124;-68
2022/05/29 12:41:54;;;;;;;0.00;0.00;;;12.50;68.10;;;;;;5031252;28;20405;-70
2022/05/29 12:44:38;;;;;;;0.05;0.05;;;12.60;67.90;;;;;;5035379;28;20135;-69
2022/05/29 12:47:31;;;;;;;0.00;0.00;;;12.60;68.10;;;;;;5031411;28;20045;-68
2022/05/29 12:50:11;;;;;;;0.00;0.00;;;12.80;67.50;;;;;;5031481;28;20076;-69
2022/05/29 12:52:56;;;;;;;0.00;0.00;;;12.80;67.60;;;;;;5030778;28;20073;-69
2022/05/29 12:55:44;;;;;;;0.00;0.00;;;12.90;66.80;;;;;;5028108;28;20835;-69
2022/05/29 12:58:19;;;;;;;0.00;0.00;;;12.90;66.90;;;;;;5027349;28;20132;-69
2022/05/29 13:01:14;;;;;;;0.00;0.00;;;13.00;66.30;;;;;;5029904;28;20041;-69
2022/05/29 13:04:01;;;;;;;0.10;0.10;;;12.90;66.10;;;;;;5013690;28;20068;-68
2022/05/29 13:06:51;;;;;;;0.00;0.00;;;12.80;66.90;;;;;;5025377;28;20061;-69
2022/05/29 13:09:47;;;;;;;0.00;0.00;;;12.90;66.70;;;;;;5028752;28;20049;-69
2022/05/29 13:12:16;;;;;;;0.10;0.10;;;12.80;66.80;;;;;;5031166;28;20042;-68
2022/05/29 13:14:53;;;;;;;0.00;0.00;;;12.90;67.30;;;;;;5033865;28;20556;-69
2022/05/29 13:17:25;;;;;;;0.00;0.00;;;12.90;66.80;;;;;;5031660;28;20426;-69
2022/05/29 13:19:56;;;;;;;;;;;12.90;67.20;;;;;;5039215;28;20053;-69
2022/05/29 13:22:41;;;;;;;0.10;0.10;;;12.90;67.10;;;;;;5024880;28;19925;-69
2022/05/29 13:25:07;;;;;;;0.00;0.00;;;13.10;66.90;;;;;;5030904;28;20044;-69
2022/05/29 13:27:33;;;;;;;0.05;0.05;;;13.10;66.10;;;;;;5029125;28;20080;-69
2022/05/29 13:30:01;;;;;;;0.00;0.00;;;13.10;64.50;;;;;;5034015;28;20103;-69
2022/05/29 13:32:29;;;;;;;0.00;0.00;;;13.20;65.20;;;;;;5034100;28;20058;-70
2022/05/29 13:35:04;;;;;;;0.95;0.80;;;13.30;65.50;;;;;;5032901;28;20033;-69
2022/05/29 13:37:33;;;;;;;0.15;0.15;;;13.10;66.20;;;;;;5027411;28;20120;-70
2022/05/29 13:40:21;;;;;;;0.00;0.00;;;13.10;66.70;;;;;;5029479;28;20052;-70
2022/05/29 13:42:52;;;;;;;0.00;0.00;;;13.00;66.50;;;;;;5023344;28;20046;-69
2022/05/29 13:45:24;;;;;;;0.10;0.10;;;12.80;65.60;;;;;;5034014;28;20049;-69
2022/05/29 13:48:05;;;;;;;0.00;0.00;;;12.80;66.40;;;;;;5024473;28;20107;-69
2022/05/29 13:50:58;;;;;;;0.00;0.00;;;12.80;66.00;;;;;;5032385;28;20050;-70